sensor_id;sensor_type;location;lat;lon;timestamp;P1;durP1;ratioP1;P2;durP2;ratioP2
14052;SDS011;7101;51.600;7.310;2023-12-20T00:02:02;13.40;;;8.07;;
14052;SDS011;7101;51.600;7.310;2023-12-20T00:04:29;12.95;;;7.90;;
14052;SDS011;7101;51.600;7.310;2023-12-20T00:06:56;13.75;;;7.10;;
14052;SDS011;7101;51.600;7.310;2023-12-20T00:09:23;11.93;;;7.30;;
14052;SDS011;7101;51.600;7.310;2023-12-20T00:11:49;18.65;;;7.25;;
14052;SDS011;7101;51.600;7.310;2023-12-20T00:14:18;12.52;;;7.53;;
14052;SDS011;7101;51.600;7.310;2023-12-20T00:16:45;11.93;;;7.13;;
14052;SDS011;7101;51.600;7.310;2023-12-20T00:19:12;14.15;;;7.35;;
14052;SDS011;7101;51.600;7.310;2023-12-20T00:21:40;12.68;;;7.32;;
14052;SDS011;7101;51.600;7.310;2023-12-20T00:24:07;13.77;;;7.38;;
14052;SDS011;7101;51.600;7.310;2023-12-20T00:26:34;13.38;;;7.43;;
14052;SDS011;7101;51.600;7.310;2023-12-20T00:29:00;15.52;;;7.93;;
14052;SDS011;7101;51.600;7.310;2023-12-20T00:31:29;10.68;;;6.70;;
14052;SDS011;7101;51.600;7.310;2023-12-20T00:33:55;11.65;;;6.10;;
14052;SDS011;7101;51.600;7.310;2023-12-20T00:36:22;13.38;;;7.25;;
14052;SDS011;7101;51.600;7.310;2023-12-20T00:38:49;11.18;;;6.38;;
14052;SDS011;7101;51.600;7.310;2023-12-20T00:41:16;13.02;;;7.20;;
14052;SDS011;7101;51.600;7.310;2023-12-20T00:43:43;9.60;;;6.13;;
14052;SDS011;7101;51.600;7.310;2023-12-20T00:46:10;9.32;;;4.40;;
14052;SDS011;7101;51.600;7.310;2023-12-20T00:48:38;6.57;;;4.38;;
14052;SDS011;7101;51.600;7.310;2023-12-20T00:51:07;9.18;;;4.10;;
14052;SDS011;7101;51.600;7.310;2023-12-20T00:53:34;7.75;;;4.15;;
14052;SDS011;7101;51.600;7.310;2023-12-20T00:56:00;8.60;;;4.38;;
14052;SDS011;7101;51.600;7.310;2023-12-20T00:58:27;6.97;;;3.97;;
14052;SDS011;7101;51.600;7.310;2023-12-20T01:00:54;8.55;;;4.18;;
14052;SDS011;7101;51.600;7.310;2023-12-20T01:03:21;9.00;;;4.15;;
14052;SDS011;7101;51.600;7.310;2023-12-20T01:05:49;10.35;;;4.10;;
14052;SDS011;7101;51.600;7.310;2023-12-20T01:08:16;21.50;;;4.63;;
14052;SDS011;7101;51.600;7.310;2023-12-20T01:10:43;8.48;;;4.03;;
14052;SDS011;7101;51.600;7.310;2023-12-20T01:13:11;8.05;;;3.78;;
14052;SDS011;7101;51.600;7.310;2023-12-20T01:15:38;10.10;;;3.50;;
14052;SDS011;7101;51.600;7.310;2023-12-20T01:18:05;9.77;;;4.43;;
14052;SDS011;7101;51.600;7.310;2023-12-20T01:20:32;9.25;;;3.58;;
14052;SDS011;7101;51.600;7.310;2023-12-20T01:23:00;11.77;;;3.85;;
14052;SDS011;7101;51.600;7.310;2023-12-20T01:25:27;8.25;;;3.10;;
14052;SDS011;7101;51.600;7.310;2023-12-20T01:27:54;7.18;;;3.33;;
14052;SDS011;7101;51.600;7.310;2023-12-20T01:30:21;7.97;;;3.10;;
14052;SDS011;7101;51.600;7.310;2023-12-20T01:32:47;6.63;;;2.47;;
14052;SDS011;7101;51.600;7.310;2023-12-20T01:35:14;9.25;;;2.67;;
14052;SDS011;7101;51.600;7.310;2023-12-20T01:37:41;8.90;;;3.42;;
14052;SDS011;7101;51.600;7.310;2023-12-20T01:40:10;7.90;;;2.45;;
14052;SDS011;7101;51.600;7.310;2023-12-20T01:42:37;9.23;;;2.70;;
14052;SDS011;7101;51.600;7.310;2023-12-20T01:45:04;4.85;;;2.83;;
14052;SDS011;7101;51.600;7.310;2023-12-20T01:47:31;11.27;;;3.00;;
14052;SDS011;7101;51.600;7.310;2023-12-20T01:49:58;10.77;;;3.08;;
14052;SDS011;7101;51.600;7.310;2023-12-20T01:52:25;6.03;;;2.78;;
14052;SDS011;7101;51.600;7.310;2023-12-20T01:54:53;8.93;;;3.45;;
14052;SDS011;7101;51.600;7.310;2023-12-20T01:57:27;10.73;;;2.92;;
14052;SDS011;7101;51.600;7.310;2023-12-20T01:59:54;7.85;;;3.17;;
14052;SDS011;7101;51.600;7.310;2023-12-20T02:02:22;6.88;;;2.83;;
14052;SDS011;7101;51.600;7.310;2023-12-20T02:04:49;9.07;;;2.55;;
14052;SDS011;7101;51.600;7.310;2023-12-20T02:07:16;9.88;;;3.10;;
14052;SDS011;7101;51.600;7.310;2023-12-20T02:09:45;8.35;;;2.63;;
14052;SDS011;7101;51.600;7.310;2023-12-20T02:12:12;9.13;;;2.92;;
14052;SDS011;7101;51.600;7.310;2023-12-20T02:14:40;11.65;;;3.00;;
14052;SDS011;7101;51.600;7.310;2023-12-20T02:17:07;8.20;;;2.80;;
14052;SDS011;7101;51.600;7.310;2023-12-20T02:19:34;11.13;;;2.97;;
14052;SDS011;7101;51.600;7.310;2023-12-20T02:22:09;4.90;;;2.55;;
14052;SDS011;7101;51.600;7.310;2023-12-20T02:24:36;5.85;;;2.95;;
14052;SDS011;7101;51.600;7.310;2023-12-20T02:27:03;13.15;;;3.60;;
14052;SDS011;7101;51.600;7.310;2023-12-20T02:29:32;11.27;;;3.60;;
14052;SDS011;7101;51.600;7.310;2023-12-20T02:31:59;13.55;;;3.10;;
14052;SDS011;7101;51.600;7.310;2023-12-20T02:34:26;6.07;;;3.17;;
14052;SDS011;7101;51.600;7.310;2023-12-20T02:36:53;9.60;;;3.28;;
14052;SDS011;7101;51.600;7.310;2023-12-20T02:39:21;11.27;;;3.38;;
14052;SDS011;7101;51.600;7.310;2023-12-20T02:41:48;9.38;;;3.03;;
14052;SDS011;7101;51.600;7.310;2023-12-20T02:44:15;17.17;;;3.13;;
14052;SDS011;7101;51.600;7.310;2023-12-20T02:46:42;9.98;;;3.50;;
14052;SDS011;7101;51.600;7.310;2023-12-20T02:49:09;10.60;;;3.40;;
14052;SDS011;7101;51.600;7.310;2023-12-20T02:51:35;13.50;;;3.05;;
14052;SDS011;7101;51.600;7.310;2023-12-20T02:54:03;7.65;;;3.25;;
14052;SDS011;7101;51.600;7.310;2023-12-20T02:56:32;9.23;;;3.08;;
14052;SDS011;7101;51.600;7.310;2023-12-20T02:58:58;10.63;;;3.08;;
14052;SDS011;7101;51.600;7.310;2023-12-20T03:01:26;6.75;;;2.83;;
14052;SDS011;7101;51.600;7.310;2023-12-20T03:03:52;6.38;;;3.08;;
14052;SDS011;7101;51.600;7.310;2023-12-20T03:06:19;9.05;;;2.75;;
14052;SDS011;7101;51.600;7.310;2023-12-20T03:08:46;12.77;;;3.08;;
14052;SDS011;7101;51.600;7.310;2023-12-20T03:11:13;10.65;;;3.63;;
14052;SDS011;7101;51.600;7.310;2023-12-20T03:13:41;18.45;;;3.33;;
14052;SDS011;7101;51.600;7.310;2023-12-20T03:16:08;16.40;;;3.83;;
14052;SDS011;7101;51.600;7.310;2023-12-20T03:18:35;13.35;;;3.58;;
14052;SDS011;7101;51.600;7.310;2023-12-20T03:21:02;11.18;;;2.75;;
14052;SDS011;7101;51.600;7.310;2023-12-20T03:23:30;16.05;;;3.25;;
14052;SDS011;7101;51.600;7.310;2023-12-20T03:25:57;6.22;;;3.25;;
14052;SDS011;7101;51.600;7.310;2023-12-20T03:28:24;9.57;;;3.03;;
14052;SDS011;7101;51.600;7.310;2023-12-20T03:30:52;8.27;;;2.88;;
14052;SDS011;7101;51.600;7.310;2023-12-20T03:33:19;7.82;;;3.17;;
14052;SDS011;7101;51.600;7.310;2023-12-20T03:35:46;14.02;;;3.40;;
14052;SDS011;7101;51.600;7.310;2023-12-20T03:38:13;13.60;;;3.58;;
14052;SDS011;7101;51.600;7.310;2023-12-20T03:40:39;8.23;;;3.67;;
14052;SDS011;7101;51.600;7.310;2023-12-20T03:43:06;11.80;;;3.75;;
14052;SDS011;7101;51.600;7.310;2023-12-20T03:45:33;8.70;;;3.90;;
14052;SDS011;7101;51.600;7.310;2023-12-20T03:48:01;9.88;;;4.20;;
14052;SDS011;7101;51.600;7.310;2023-12-20T03:50:28;10.85;;;4.25;;
14052;SDS011;7101;51.600;7.310;2023-12-20T03:52:55;18.48;;;4.55;;
14052;SDS011;7101;51.600;7.310;2023-12-20T03:55:22;9.93;;;3.95;;
14052;SDS011;7101;51.600;7.310;2023-12-20T03:57:49;8.80;;;3.90;;
14052;SDS011;7101;51.600;7.310;2023-12-20T04:00:16;7.47;;;3.45;;
14052;SDS011;7101;51.600;7.310;2023-12-20T04:02:43;12.27;;;4.10;;
14052;SDS011;7101;51.600;7.310;2023-12-20T04:05:12;10.40;;;3.88;;
14052;SDS011;7101;51.600;7.310;2023-12-20T04:07:38;12.10;;;3.20;;
14052;SDS011;7101;51.600;7.310;2023-12-20T04:10:05;8.30;;;3.00;;
14052;SDS011;7101;51.600;7.310;2023-12-20T04:12:33;16.77;;;3.33;;
14052;SDS011;7101;51.600;7.310;2023-12-20T04:15:00;11.45;;;3.08;;
14052;SDS011;7101;51.600;7.310;2023-12-20T04:17:26;16.05;;;3.10;;
14052;SDS011;7101;51.600;7.310;2023-12-20T04:19:53;18.45;;;3.58;;
14052;SDS011;7101;51.600;7.310;2023-12-20T04:22:21;11.23;;;3.78;;
14052;SDS011;7101;51.600;7.310;2023-12-20T04:24:48;14.05;;;3.17;;
14052;SDS011;7101;51.600;7.310;2023-12-20T04:27:15;10.90;;;2.63;;
14052;SDS011;7101;51.600;7.310;2023-12-20T04:29:42;12.77;;;3.35;;
14052;SDS011;7101;51.600;7.310;2023-12-20T04:32:08;8.60;;;2.80;;
14052;SDS011;7101;51.600;7.310;2023-12-20T04:34:35;15.75;;;3.20;;
14052;SDS011;7101;51.600;7.310;2023-12-20T04:37:02;10.75;;;3.03;;
14052;SDS011;7101;51.600;7.310;2023-12-20T04:39:31;14.48;;;4.78;;
14052;SDS011;7101;51.600;7.310;2023-12-20T04:41:58;16.80;;;3.83;;
14052;SDS011;7101;51.600;7.310;2023-12-20T04:44:25;11.80;;;4.22;;
14052;SDS011;7101;51.600;7.310;2023-12-20T04:46:51;18.98;;;4.68;;
14052;SDS011;7101;51.600;7.310;2023-12-20T04:49:18;12.02;;;4.25;;
14052;SDS011;7101;51.600;7.310;2023-12-20T04:51:45;15.88;;;4.35;;
14052;SDS011;7101;51.600;7.310;2023-12-20T04:54:12;17.05;;;5.03;;
14052;SDS011;7101;51.600;7.310;2023-12-20T04:56:40;15.77;;;4.20;;
14052;SDS011;7101;51.600;7.310;2023-12-20T04:59:07;16.20;;;4.60;;
14052;SDS011;7101;51.600;7.310;2023-12-20T05:01:34;9.43;;;4.55;;
14052;SDS011;7101;51.600;7.310;2023-12-20T05:04:01;13.02;;;4.78;;
14052;SDS011;7101;51.600;7.310;2023-12-20T05:06:28;15.65;;;4.32;;
14052;SDS011;7101;51.600;7.310;2023-12-20T05:08:54;9.95;;;4.15;;
14052;SDS011;7101;51.600;7.310;2023-12-20T05:11:21;12.45;;;4.75;;
14052;SDS011;7101;51.600;7.310;2023-12-20T05:13:50;13.45;;;4.45;;
14052;SDS011;7101;51.600;7.310;2023-12-20T05:16:17;10.52;;;3.90;;
14052;SDS011;7101;51.600;7.310;2023-12-20T05:18:44;8.93;;;3.50;;
14052;SDS011;7101;51.600;7.310;2023-12-20T05:21:11;12.75;;;3.83;;
14052;SDS011;7101;51.600;7.310;2023-12-20T05:23:38;13.32;;;3.45;;
14052;SDS011;7101;51.600;7.310;2023-12-20T05:26:05;11.18;;;3.67;;
14052;SDS011;7101;51.600;7.310;2023-12-20T05:28:32;12.73;;;3.45;;
14052;SDS011;7101;51.600;7.310;2023-12-20T05:31:00;9.43;;;3.70;;
14052;SDS011;7101;51.600;7.310;2023-12-20T05:33:27;14.75;;;4.20;;
14052;SDS011;7101;51.600;7.310;2023-12-20T05:35:53;13.07;;;4.25;;
14052;SDS011;7101;51.600;7.310;2023-12-20T05:38:20;9.15;;;4.30;;
14052;SDS011;7101;51.600;7.310;2023-12-20T05:40:47;15.88;;;4.50;;
14052;SDS011;7101;51.600;7.310;2023-12-20T05:43:14;11.45;;;4.85;;
14052;SDS011;7101;51.600;7.310;2023-12-20T05:45:40;11.65;;;4.65;;
14052;SDS011;7101;51.600;7.310;2023-12-20T05:48:08;10.68;;;4.15;;
14052;SDS011;7101;51.600;7.310;2023-12-20T05:50:35;13.07;;;4.25;;
14052;SDS011;7101;51.600;7.310;2023-12-20T05:53:02;11.80;;;4.88;;
14052;SDS011;7101;51.600;7.310;2023-12-20T05:55:29;14.07;;;5.05;;
14052;SDS011;7101;51.600;7.310;2023-12-20T05:57:56;14.07;;;4.50;;
14052;SDS011;7101;51.600;7.310;2023-12-20T06:00:23;15.90;;;5.53;;
14052;SDS011;7101;51.600;7.310;2023-12-20T06:02:50;10.82;;;5.00;;
14052;SDS011;7101;51.600;7.310;2023-12-20T06:05:18;12.82;;;5.13;;
14052;SDS011;7101;51.600;7.310;2023-12-20T06:07:45;15.38;;;4.47;;
14052;SDS011;7101;51.600;7.310;2023-12-20T06:10:13;13.20;;;4.75;;
14052;SDS011;7101;51.600;7.310;2023-12-20T06:12:40;22.48;;;6.15;;
14052;SDS011;7101;51.600;7.310;2023-12-20T06:15:07;10.40;;;4.63;;
14052;SDS011;7101;51.600;7.310;2023-12-20T06:17:34;8.20;;;4.53;;
14052;SDS011;7101;51.600;7.310;2023-12-20T06:20:01;17.40;;;5.15;;
14052;SDS011;7101;51.600;7.310;2023-12-20T06:22:34;14.35;;;4.43;;
14052;SDS011;7101;51.600;7.310;2023-12-20T06:25:01;10.90;;;4.15;;
14052;SDS011;7101;51.600;7.310;2023-12-20T06:27:28;13.35;;;4.25;;
14052;SDS011;7101;51.600;7.310;2023-12-20T06:29:55;23.13;;;6.20;;
14052;SDS011;7101;51.600;7.310;2023-12-20T06:32:22;18.85;;;4.82;;
14052;SDS011;7101;51.600;7.310;2023-12-20T06:34:50;17.95;;;4.57;;
14052;SDS011;7101;51.600;7.310;2023-12-20T06:37:17;14.57;;;4.50;;
14052;SDS011;7101;51.600;7.310;2023-12-20T06:39:45;16.13;;;4.85;;
14052;SDS011;7101;51.600;7.310;2023-12-20T06:42:12;14.20;;;4.93;;
14052;SDS011;7101;51.600;7.310;2023-12-20T06:44:40;15.00;;;5.43;;
14052;SDS011;7101;51.600;7.310;2023-12-20T06:47:06;11.30;;;4.18;;
14052;SDS011;7101;51.600;7.310;2023-12-20T06:49:34;13.90;;;4.82;;
14052;SDS011;7101;51.600;7.310;2023-12-20T06:52:01;16.48;;;5.10;;
14052;SDS011;7101;51.600;7.310;2023-12-20T06:54:28;12.32;;;4.78;;
14052;SDS011;7101;51.600;7.310;2023-12-20T06:56:56;14.50;;;4.78;;
14052;SDS011;7101;51.600;7.310;2023-12-20T06:59:23;15.07;;;5.00;;
14052;SDS011;7101;51.600;7.310;2023-12-20T07:01:49;17.40;;;5.10;;
14052;SDS011;7101;51.600;7.310;2023-12-20T07:04:17;14.90;;;4.03;;
14052;SDS011;7101;51.600;7.310;2023-12-20T07:06:45;10.52;;;4.10;;
14052;SDS011;7101;51.600;7.310;2023-12-20T07:09:12;10.15;;;3.95;;
14052;SDS011;7101;51.600;7.310;2023-12-20T07:11:39;14.68;;;4.40;;
14052;SDS011;7101;51.600;7.310;2023-12-20T07:14:07;25.90;;;4.90;;
14052;SDS011;7101;51.600;7.310;2023-12-20T07:16:34;14.57;;;5.15;;
14052;SDS011;7101;51.600;7.310;2023-12-20T07:19:01;11.32;;;4.72;;
14052;SDS011;7101;51.600;7.310;2023-12-20T07:21:28;12.32;;;4.47;;
14052;SDS011;7101;51.600;7.310;2023-12-20T07:23:55;14.60;;;4.78;;
14052;SDS011;7101;51.600;7.310;2023-12-20T07:26:21;14.32;;;4.28;;
14052;SDS011;7101;51.600;7.310;2023-12-20T07:28:48;16.35;;;4.50;;
14052;SDS011;7101;51.600;7.310;2023-12-20T07:31:17;16.27;;;4.70;;
14052;SDS011;7101;51.600;7.310;2023-12-20T07:33:43;11.57;;;4.53;;
14052;SDS011;7101;51.600;7.310;2023-12-20T07:36:11;9.85;;;4.10;;
14052;SDS011;7101;51.600;7.310;2023-12-20T07:38:38;8.88;;;4.10;;
14052;SDS011;7101;51.600;7.310;2023-12-20T07:41:09;12.68;;;5.10;;
14052;SDS011;7101;51.600;7.310;2023-12-20T07:43:36;14.95;;;4.68;;
14052;SDS011;7101;51.600;7.310;2023-12-20T07:46:05;15.45;;;4.50;;
14052;SDS011;7101;51.600;7.310;2023-12-20T07:48:34;9.55;;;4.03;;
14052;SDS011;7101;51.600;7.310;2023-12-20T07:51:01;11.85;;;4.53;;
14052;SDS011;7101;51.600;7.310;2023-12-20T07:53:28;12.93;;;4.95;;
14052;SDS011;7101;51.600;7.310;2023-12-20T07:55:55;11.75;;;4.20;;
14052;SDS011;7101;51.600;7.310;2023-12-20T07:58:22;12.30;;;5.10;;
14052;SDS011;7101;51.600;7.310;2023-12-20T08:00:49;19.13;;;4.80;;
14052;SDS011;7101;51.600;7.310;2023-12-20T08:03:15;8.20;;;3.67;;
14052;SDS011;7101;51.600;7.310;2023-12-20T08:05:44;11.40;;;4.28;;
14052;SDS011;7101;51.600;7.310;2023-12-20T08:08:10;15.35;;;4.25;;
14052;SDS011;7101;51.600;7.310;2023-12-20T08:10:37;13.65;;;4.30;;
14052;SDS011;7101;51.600;7.310;2023-12-20T08:13:04;13.95;;;4.35;;
14052;SDS011;7101;51.600;7.310;2023-12-20T08:15:31;10.77;;;4.47;;
14052;SDS011;7101;51.600;7.310;2023-12-20T08:17:58;8.88;;;3.72;;
14052;SDS011;7101;51.600;7.310;2023-12-20T08:20:25;10.20;;;3.58;;
14052;SDS011;7101;51.600;7.310;2023-12-20T08:22:53;17.95;;;4.55;;
14052;SDS011;7101;51.600;7.310;2023-12-20T08:25:20;9.32;;;3.88;;
14052;SDS011;7101;51.600;7.310;2023-12-20T08:27:47;7.47;;;4.07;;
14052;SDS011;7101;51.600;7.310;2023-12-20T08:30:14;13.18;;;3.53;;
14052;SDS011;7101;51.600;7.310;2023-12-20T08:32:42;15.07;;;4.25;;
14052;SDS011;7101;51.600;7.310;2023-12-20T08:35:09;13.48;;;4.22;;
14052;SDS011;7101;51.600;7.310;2023-12-20T08:37:36;14.13;;;3.85;;
14052;SDS011;7101;51.600;7.310;2023-12-20T08:40:04;14.60;;;4.03;;
14052;SDS011;7101;51.600;7.310;2023-12-20T08:42:32;10.60;;;4.18;;
14052;SDS011;7101;51.600;7.310;2023-12-20T08:44:59;11.90;;;4.13;;
14052;SDS011;7101;51.600;7.310;2023-12-20T08:47:26;12.35;;;3.80;;
14052;SDS011;7101;51.600;7.310;2023-12-20T08:49:53;12.95;;;4.00;;
14052;SDS011;7101;51.600;7.310;2023-12-20T08:52:21;12.30;;;3.60;;
14052;SDS011;7101;51.600;7.310;2023-12-20T08:54:48;17.80;;;4.30;;
14052;SDS011;7101;51.600;7.310;2023-12-20T08:57:18;10.35;;;3.95;;
14052;SDS011;7101;51.600;7.310;2023-12-20T08:59:45;13.73;;;4.32;;
14052;SDS011;7101;51.600;7.310;2023-12-20T09:02:12;15.88;;;3.90;;
14052;SDS011;7101;51.600;7.310;2023-12-20T09:04:40;17.42;;;4.43;;
14052;SDS011;7101;51.600;7.310;2023-12-20T09:07:07;11.68;;;3.80;;
14052;SDS011;7101;51.600;7.310;2023-12-20T09:09:47;14.60;;;4.10;;
14052;SDS011;7101;51.600;7.310;2023-12-20T09:12:14;11.50;;;3.58;;
14052;SDS011;7101;51.600;7.310;2023-12-20T09:14:42;15.90;;;3.80;;
14052;SDS011;7101;51.600;7.310;2023-12-20T09:17:09;15.40;;;3.58;;
14052;SDS011;7101;51.600;7.310;2023-12-20T09:19:37;11.13;;;3.53;;
14052;SDS011;7101;51.600;7.310;2023-12-20T09:22:04;14.05;;;3.88;;
14052;SDS011;7101;51.600;7.310;2023-12-20T09:24:30;13.05;;;3.67;;
14052;SDS011;7101;51.600;7.310;2023-12-20T09:26:57;14.55;;;3.75;;
14052;SDS011;7101;51.600;7.310;2023-12-20T09:29:24;11.02;;;3.47;;
14052;SDS011;7101;51.600;7.310;2023-12-20T09:31:52;9.60;;;3.08;;
14052;SDS011;7101;51.600;7.310;2023-12-20T09:34:19;8.45;;;3.05;;
14052;SDS011;7101;51.600;7.310;2023-12-20T09:36:46;14.32;;;3.25;;
14052;SDS011;7101;51.600;7.310;2023-12-20T09:39:13;16.48;;;2.72;;
14052;SDS011;7101;51.600;7.310;2023-12-20T09:41:41;13.40;;;3.67;;
14052;SDS011;7101;51.600;7.310;2023-12-20T09:44:13;9.73;;;3.47;;
14052;SDS011;7101;51.600;7.310;2023-12-20T09:46:43;10.10;;;3.65;;
14052;SDS011;7101;51.600;7.310;2023-12-20T09:49:12;13.15;;;4.63;;
14052;SDS011;7101;51.600;7.310;2023-12-20T09:51:40;12.55;;;3.63;;
14052;SDS011;7101;51.600;7.310;2023-12-20T09:54:07;17.15;;;5.13;;
14052;SDS011;7101;51.600;7.310;2023-12-20T09:56:36;17.23;;;4.65;;
14052;SDS011;7101;51.600;7.310;2023-12-20T09:59:03;13.07;;;3.50;;
14052;SDS011;7101;51.600;7.310;2023-12-20T10:01:30;14.18;;;3.85;;
14052;SDS011;7101;51.600;7.310;2023-12-20T10:03:57;16.38;;;3.42;;
14052;SDS011;7101;51.600;7.310;2023-12-20T10:06:28;15.00;;;3.65;;
14052;SDS011;7101;51.600;7.310;2023-12-20T10:08:55;12.77;;;3.38;;
14052;SDS011;7101;51.600;7.310;2023-12-20T10:11:21;11.02;;;3.05;;
14052;SDS011;7101;51.600;7.310;2023-12-20T10:13:48;9.00;;;3.00;;
14052;SDS011;7101;51.600;7.310;2023-12-20T10:16:15;8.90;;;2.85;;
14052;SDS011;7101;51.600;7.310;2023-12-20T10:18:42;14.35;;;3.17;;
14052;SDS011;7101;51.600;7.310;2023-12-20T10:21:09;10.23;;;2.40;;
14052;SDS011;7101;51.600;7.310;2023-12-20T10:23:38;11.75;;;3.20;;
14052;SDS011;7101;51.600;7.310;2023-12-20T10:26:06;9.13;;;3.20;;
14052;SDS011;7101;51.600;7.310;2023-12-20T10:28:33;12.90;;;2.70;;
14052;SDS011;7101;51.600;7.310;2023-12-20T10:31:00;12.88;;;3.45;;
14052;SDS011;7101;51.600;7.310;2023-12-20T10:33:27;17.13;;;3.20;;
14052;SDS011;7101;51.600;7.310;2023-12-20T10:35:55;18.30;;;3.67;;
14052;SDS011;7101;51.600;7.310;2023-12-20T10:38:22;13.38;;;3.63;;
14052;SDS011;7101;51.600;7.310;2023-12-20T10:40:50;12.52;;;2.92;;
14052;SDS011;7101;51.600;7.310;2023-12-20T10:43:23;10.45;;;3.70;;
14052;SDS011;7101;51.600;7.310;2023-12-20T10:45:52;12.25;;;3.28;;
14052;SDS011;7101;51.600;7.310;2023-12-20T10:48:18;9.32;;;3.45;;
14052;SDS011;7101;51.600;7.310;2023-12-20T10:50:47;8.40;;;3.17;;
14052;SDS011;7101;51.600;7.310;2023-12-20T10:53:15;12.75;;;3.72;;
14052;SDS011;7101;51.600;7.310;2023-12-20T10:55:42;9.35;;;4.30;;
14052;SDS011;7101;51.600;7.310;2023-12-20T10:58:12;8.23;;;3.53;;
14052;SDS011;7101;51.600;7.310;2023-12-20T11:00:40;14.98;;;3.42;;
14052;SDS011;7101;51.600;7.310;2023-12-20T11:03:10;14.65;;;3.45;;
14052;SDS011;7101;51.600;7.310;2023-12-20T11:05:40;11.13;;;4.25;;
14052;SDS011;7101;51.600;7.310;2023-12-20T11:08:15;6.53;;;3.20;;
14052;SDS011;7101;51.600;7.310;2023-12-20T11:10:48;15.90;;;3.85;;
14052;SDS011;7101;51.600;7.310;2023-12-20T11:13:26;12.63;;;3.90;;
14052;SDS011;7101;51.600;7.310;2023-12-20T11:15:57;13.90;;;4.25;;
14052;SDS011;7101;51.600;7.310;2023-12-20T11:18:28;8.15;;;2.97;;
14052;SDS011;7101;51.600;7.310;2023-12-20T11:20:55;10.43;;;2.80;;
14052;SDS011;7101;51.600;7.310;2023-12-20T11:23:26;15.43;;;3.78;;
14052;SDS011;7101;51.600;7.310;2023-12-20T11:25:53;8.40;;;2.85;;
14052;SDS011;7101;51.600;7.310;2023-12-20T11:28:25;10.30;;;2.95;;
14052;SDS011;7101;51.600;7.310;2023-12-20T11:30:53;9.10;;;2.50;;
14052;SDS011;7101;51.600;7.310;2023-12-20T11:33:23;12.13;;;3.00;;
14052;SDS011;7101;51.600;7.310;2023-12-20T11:35:51;12.70;;;3.33;;
14052;SDS011;7101;51.600;7.310;2023-12-20T11:38:21;7.65;;;2.67;;
14052;SDS011;7101;51.600;7.310;2023-12-20T11:40:49;9.80;;;2.42;;
14052;SDS011;7101;51.600;7.310;2023-12-20T11:43:30;13.52;;;2.78;;
14052;SDS011;7101;51.600;7.310;2023-12-20T11:46:02;9.45;;;2.45;;
14052;SDS011;7101;51.600;7.310;2023-12-20T11:48:30;10.02;;;2.47;;
14052;SDS011;7101;51.600;7.310;2023-12-20T11:50:57;6.45;;;2.85;;
14052;SDS011;7101;51.600;7.310;2023-12-20T11:53:24;12.35;;;2.65;;
14052;SDS011;7101;51.600;7.310;2023-12-20T11:55:51;12.27;;;3.47;;
14052;SDS011;7101;51.600;7.310;2023-12-20T11:58:19;10.52;;;3.15;;
14052;SDS011;7101;51.600;7.310;2023-12-20T12:00:48;10.95;;;3.17;;
14052;SDS011;7101;51.600;7.310;2023-12-20T12:03:15;11.82;;;3.85;;
14052;SDS011;7101;51.600;7.310;2023-12-20T12:05:43;11.00;;;3.15;;
14052;SDS011;7101;51.600;7.310;2023-12-20T12:08:12;8.02;;;3.28;;
14052;SDS011;7101;51.600;7.310;2023-12-20T12:10:39;10.75;;;3.53;;
14052;SDS011;7101;51.600;7.310;2023-12-20T12:13:05;15.75;;;3.80;;
14052;SDS011;7101;51.600;7.310;2023-12-20T12:15:32;11.02;;;4.07;;
14052;SDS011;7101;51.600;7.310;2023-12-20T12:18:00;14.10;;;3.85;;
14052;SDS011;7101;51.600;7.310;2023-12-20T12:20:27;8.07;;;3.35;;
14052;SDS011;7101;51.600;7.310;2023-12-20T12:22:58;9.82;;;3.53;;
14052;SDS011;7101;51.600;7.310;2023-12-20T12:25:25;10.88;;;3.88;;
14052;SDS011;7101;51.600;7.310;2023-12-20T12:27:52;15.45;;;4.32;;
14052;SDS011;7101;51.600;7.310;2023-12-20T12:30:19;10.07;;;3.63;;
14052;SDS011;7101;51.600;7.310;2023-12-20T12:32:46;10.20;;;3.70;;
14052;SDS011;7101;51.600;7.310;2023-12-20T12:35:14;13.20;;;4.18;;
14052;SDS011;7101;51.600;7.310;2023-12-20T12:37:43;8.00;;;3.53;;
14052;SDS011;7101;51.600;7.310;2023-12-20T12:40:12;13.07;;;3.92;;
14052;SDS011;7101;51.600;7.310;2023-12-20T12:42:40;13.93;;;4.45;;
14052;SDS011;7101;51.600;7.310;2023-12-20T12:45:07;9.90;;;4.07;;
14052;SDS011;7101;51.600;7.310;2023-12-20T12:47:36;8.30;;;3.53;;
14052;SDS011;7101;51.600;7.310;2023-12-20T12:50:04;10.27;;;4.03;;
14052;SDS011;7101;51.600;7.310;2023-12-20T12:52:32;9.75;;;3.97;;
14052;SDS011;7101;51.600;7.310;2023-12-20T12:55:00;10.10;;;3.88;;
14052;SDS011;7101;51.600;7.310;2023-12-20T12:57:28;10.63;;;3.67;;
14052;SDS011;7101;51.600;7.310;2023-12-20T12:59:55;10.57;;;4.05;;
14052;SDS011;7101;51.600;7.310;2023-12-20T13:02:23;19.50;;;4.38;;
14052;SDS011;7101;51.600;7.310;2023-12-20T13:04:51;11.90;;;3.40;;
14052;SDS011;7101;51.600;7.310;2023-12-20T13:07:18;10.90;;;3.75;;
14052;SDS011;7101;51.600;7.310;2023-12-20T13:09:46;14.07;;;4.57;;
14052;SDS011;7101;51.600;7.310;2023-12-20T13:12:12;9.18;;;4.13;;
14052;SDS011;7101;51.600;7.310;2023-12-20T13:14:40;15.73;;;3.85;;
14052;SDS011;7101;51.600;7.310;2023-12-20T13:17:06;13.73;;;4.35;;
14052;SDS011;7101;51.600;7.310;2023-12-20T13:19:33;14.93;;;4.85;;
14052;SDS011;7101;51.600;7.310;2023-12-20T13:22:00;15.73;;;4.65;;
14052;SDS011;7101;51.600;7.310;2023-12-20T13:24:27;10.85;;;4.43;;
14052;SDS011;7101;51.600;7.310;2023-12-20T13:26:55;9.02;;;4.15;;
14052;SDS011;7101;51.600;7.310;2023-12-20T13:29:23;12.32;;;4.07;;
14052;SDS011;7101;51.600;7.310;2023-12-20T13:31:52;18.13;;;4.38;;
14052;SDS011;7101;51.600;7.310;2023-12-20T13:34:18;12.57;;;3.47;;
14052;SDS011;7101;51.600;7.310;2023-12-20T13:36:45;16.05;;;3.78;;
14052;SDS011;7101;51.600;7.310;2023-12-20T13:39:12;10.20;;;4.00;;
14052;SDS011;7101;51.600;7.310;2023-12-20T13:41:39;10.30;;;3.85;;
14052;SDS011;7101;51.600;7.310;2023-12-20T13:44:08;8.25;;;3.97;;
14052;SDS011;7101;51.600;7.310;2023-12-20T13:46:35;5.15;;;3.60;;
14052;SDS011;7101;51.600;7.310;2023-12-20T13:49:02;10.57;;;4.38;;
14052;SDS011;7101;51.600;7.310;2023-12-20T13:51:30;13.70;;;4.68;;
14052;SDS011;7101;51.600;7.310;2023-12-20T13:53:56;7.10;;;4.10;;
14052;SDS011;7101;51.600;7.310;2023-12-20T13:56:24;10.68;;;4.03;;
14052;SDS011;7101;51.600;7.310;2023-12-20T13:58:52;12.32;;;4.53;;
14052;SDS011;7101;51.600;7.310;2023-12-20T14:01:20;14.60;;;4.60;;
14052;SDS011;7101;51.600;7.310;2023-12-20T14:03:47;10.27;;;4.40;;
14052;SDS011;7101;51.600;7.310;2023-12-20T14:06:13;12.50;;;4.78;;
14052;SDS011;7101;51.600;7.310;2023-12-20T14:08:41;13.05;;;5.28;;
14052;SDS011;7101;51.600;7.310;2023-12-20T14:11:08;10.70;;;4.00;;
14052;SDS011;7101;51.600;7.310;2023-12-20T14:13:35;13.20;;;4.10;;
14052;SDS011;7101;51.600;7.310;2023-12-20T14:16:03;15.95;;;5.25;;
14052;SDS011;7101;51.600;7.310;2023-12-20T14:18:32;12.25;;;5.93;;
14052;SDS011;7101;51.600;7.310;2023-12-20T14:20:58;10.02;;;5.05;;
14052;SDS011;7101;51.600;7.310;2023-12-20T14:23:25;13.75;;;5.10;;
14052;SDS011;7101;51.600;7.310;2023-12-20T14:25:52;12.85;;;5.50;;
14052;SDS011;7101;51.600;7.310;2023-12-20T14:28:21;10.00;;;5.38;;
14052;SDS011;7101;51.600;7.310;2023-12-20T14:30:47;7.95;;;5.70;;
14052;SDS011;7101;51.600;7.310;2023-12-20T14:33:14;11.48;;;5.43;;
14052;SDS011;7101;51.600;7.310;2023-12-20T14:35:42;23.10;;;5.82;;
14052;SDS011;7101;51.600;7.310;2023-12-20T14:38:09;17.92;;;5.78;;
14052;SDS011;7101;51.600;7.310;2023-12-20T14:40:38;15.57;;;6.15;;
14052;SDS011;7101;51.600;7.310;2023-12-20T14:43:05;11.38;;;5.60;;
14052;SDS011;7101;51.600;7.310;2023-12-20T14:45:32;10.48;;;5.15;;
14052;SDS011;7101;51.600;7.310;2023-12-20T14:47:59;10.40;;;5.38;;
14052;SDS011;7101;51.600;7.310;2023-12-20T14:50:26;14.05;;;5.35;;
14052;SDS011;7101;51.600;7.310;2023-12-20T14:52:54;11.30;;;5.00;;